createdAt,value
2019-02-26T00:00:26.183Z,39.20
2019-02-26T00:02:55.357Z,38.13
2019-02-26T00:05:21.575Z,39.93
2019-02-26T00:07:50.908Z,40.97
2019-02-26T00:10:15.012Z,40.30
2019-02-26T00:12:40.217Z,39.80
2019-02-26T00:15:09.035Z,39.03
2019-02-26T00:17:38.540Z,39.80
2019-02-26T00:20:05.553Z,41.57
2019-02-26T00:22:30.012Z,39.20
2019-02-26T00:24:56.276Z,39.87
2019-02-26T00:27:23.369Z,38.67
2019-02-26T00:29:51.343Z,39.03
2019-02-26T00:32:18.388Z,36.80
2019-02-26T00:34:44.257Z,37.63
2019-02-26T00:37:09.827Z,36.33
2019-02-26T00:39:35.384Z,37.20
2019-02-26T00:42:05.167Z,38.93
2019-02-26T00:44:32.215Z,37.37
2019-02-26T00:46:59.609Z,35.63
2019-02-26T00:49:25.820Z,38.10
2019-02-26T00:51:52.890Z,36.00
2019-02-26T00:54:22.148Z,37.43
2019-02-26T00:56:48.164Z,36.90
2019-02-26T00:59:13.703Z,37.50
2019-02-26T01:01:39.275Z,35.67
2019-02-26T01:04:04.939Z,34.70
2019-02-26T01:06:31.248Z,35.90
2019-02-26T01:08:59.010Z,34.50
2019-02-26T01:11:27.996Z,35.87
2019-02-26T01:13:56.886Z,36.97
2019-02-26T01:16:22.588Z,36.47
2019-02-26T01:18:49.395Z,37.27
2019-02-26T01:21:15.885Z,37.53
2019-02-26T01:23:41.441Z,35.33
2019-02-26T01:26:07.015Z,38.97
2019-02-26T01:28:34.976Z,34.50
2019-02-26T01:31:02.607Z,37.60
2019-02-26T01:33:30.218Z,37.70
2019-02-26T01:35:57.812Z,40.63
2019-02-26T01:38:23.777Z,38.60
2019-02-26T01:40:51.866Z,40.30
2019-02-26T01:43:16.718Z,38.80
2019-02-26T01:45:43.819Z,41.93
2019-02-26T01:48:11.506Z,40.93
2019-02-26T01:50:37.949Z,39.57
2019-02-26T01:53:03.364Z,41.70
2019-02-26T01:55:28.522Z,39.87
2019-02-26T01:57:54.074Z,39.30
2019-02-26T02:00:19.309Z,41.00
2019-02-26T02:02:44.547Z,40.03
2019-02-26T02:05:09.905Z,40.80
2019-02-26T02:07:35.332Z,42.03
2019-02-26T02:10:03.027Z,40.83
2019-02-26T02:12:30.106Z,39.63
2019-02-26T02:14:55.782Z,40.10
2019-02-26T02:17:21.077Z,41.00
2019-02-26T02:19:46.467Z,43.13
2019-02-26T02:22:14.560Z,42.53
2019-02-26T02:24:41.815Z,41.80
2019-02-26T02:27:06.967Z,43.87
2019-02-26T02:29:32.201Z,44.77
2019-02-26T02:31:59.495Z,45.00
2019-02-26T02:34:27.029Z,42.50
2019-02-26T02:36:51.590Z,41.87
2019-02-26T02:39:18.264Z,42.13
2019-02-26T02:41:45.430Z,40.20
2019-02-26T02:44:14.482Z,42.53
2019-02-26T02:46:39.272Z,39.87
2019-02-26T02:49:07.490Z,41.60
2019-02-26T02:51:36.411Z,41.87
2019-02-26T02:54:02.148Z,41.53
2019-02-26T02:56:27.437Z,40.80
2019-02-26T02:58:52.608Z,39.63
2019-02-26T03:01:20.409Z,41.87
2019-02-26T03:03:47.742Z,41.93
2019-02-26T03:06:14.371Z,39.50
2019-02-26T03:08:42.099Z,41.57
2019-02-26T03:11:07.426Z,43.70
2019-02-26T03:13:33.842Z,41.50
2019-02-26T03:16:01.639Z,41.53
2019-02-26T03:18:29.248Z,40.50
2019-02-26T03:20:56.738Z,38.97
2019-02-26T03:23:22.272Z,42.70
2019-02-26T03:25:49.824Z,41.93
2019-02-26T03:28:15.310Z,42.30
2019-02-26T03:30:44.374Z,40.80
2019-02-26T03:33:10.296Z,40.33
2019-02-26T03:35:35.861Z,38.40
2019-02-26T03:38:03.555Z,38.77
2019-02-26T03:40:29.960Z,39.60
2019-02-26T03:42:56.845Z,39.80
2019-02-26T03:45:24.809Z,39.87
2019-02-26T03:47:49.256Z,37.80
2019-02-26T03:50:15.232Z,40.00
2019-02-26T03:52:41.223Z,39.10
2019-02-26T03:55:09.440Z,39.20
2019-02-26T03:57:34.311Z,39.70
2019-02-26T03:59:59.620Z,40.03
2019-02-26T04:02:25.066Z,39.00
2019-02-26T04:04:53.995Z,39.10
2019-02-26T04:07:17.551Z,41.00
2019-02-26T04:09:44.326Z,39.40
2019-02-26T04:12:12.605Z,38.30
2019-02-26T04:14:38.179Z,40.53
2019-02-26T04:17:05.924Z,40.70
2019-02-26T04:19:30.573Z,38.87
2019-02-26T04:22:26.561Z,40.30
2019-02-26T04:25:22.222Z,42.10
2019-02-26T04:27:53.585Z,42.10
2019-02-26T04:30:39.356Z,39.57
2019-02-26T04:33:24.152Z,40.63
2019-02-26T04:35:57.360Z,40.93
2019-02-26T04:38:29.094Z,40.73
2019-02-26T04:41:00.394Z,42.23
2019-02-26T04:43:42.703Z,39.70
2019-02-26T04:46:22.331Z,39.10
2019-02-26T04:48:48.261Z,41.27
2019-02-26T04:51:18.942Z,39.20
2019-02-26T04:53:44.471Z,41.03
2019-02-26T04:56:12.809Z,40.20
2019-02-26T04:58:39.782Z,39.37
2019-02-26T05:01:06.885Z,40.07
2019-02-26T05:03:31.917Z,40.33
2019-02-26T05:06:00.144Z,41.90
2019-02-26T05:08:25.048Z,40.60
2019-02-26T05:10:52.448Z,39.60
2019-02-26T05:13:18.088Z,41.30
2019-02-26T05:15:44.153Z,38.63
2019-02-26T05:18:09.726Z,40.80
2019-02-26T05:20:36.907Z,41.37
2019-02-26T05:23:03.868Z,40.77
2019-02-26T05:25:31.510Z,42.47
2019-02-26T05:27:57.878Z,41.90
2019-02-26T05:30:23.909Z,42.33
2019-02-26T05:32:51.958Z,41.60
2019-02-26T05:35:20.850Z,42.53
2019-02-26T05:37:46.778Z,40.60
2019-02-26T05:40:15.332Z,43.40
2019-02-26T05:42:39.732Z,44.40
2019-02-26T05:45:09.371Z,42.37
2019-02-26T05:47:34.762Z,45.33
2019-02-26T05:50:02.267Z,43.60
2019-02-26T05:52:28.134Z,41.93
2019-02-26T05:54:54.264Z,41.60
2019-02-26T05:57:29.138Z,42.73
2019-02-26T05:59:46.626Z,40.17
2019-02-26T06:02:14.050Z,39.87
2019-02-26T06:04:41.120Z,40.47
2019-02-26T06:07:06.443Z,41.27
2019-02-26T06:09:33.789Z,40.73
2019-02-26T06:11:59.011Z,40.87
2019-02-26T06:14:25.552Z,41.93
2019-02-26T06:16:55.420Z,43.07
2019-02-26T06:19:42.092Z,43.07
2019-02-26T06:22:08.943Z,42.40
2019-02-26T06:24:35.676Z,42.00
2019-02-26T06:27:01.172Z,42.20
2019-02-26T06:29:27.449Z,43.50
2019-02-26T06:31:57.565Z,41.37
2019-02-26T06:34:22.791Z,42.87
2019-02-26T06:36:48.881Z,44.30
2019-02-26T06:39:15.096Z,45.53
2019-02-26T06:41:41.945Z,43.63
2019-02-26T06:44:08.017Z,44.47
2019-02-26T06:46:33.693Z,41.50
2019-02-26T06:49:00.856Z,44.63
2019-02-26T06:51:28.132Z,44.97
2019-02-26T06:53:54.803Z,43.80
2019-02-26T06:56:22.105Z,42.90
2019-02-26T06:58:47.908Z,43.93
2019-02-26T07:01:14.325Z,42.30
2019-02-26T07:03:42.845Z,40.90
2019-02-26T07:06:08.475Z,43.90
2019-02-26T07:08:34.066Z,40.97
2019-02-26T07:11:00.699Z,42.73
2019-02-26T07:13:26.496Z,42.90
2019-02-26T07:15:52.032Z,40.47
2019-02-26T07:18:19.574Z,42.57
2019-02-26T07:20:47.511Z,40.30
2019-02-26T07:23:13.701Z,41.40
2019-02-26T07:25:42.037Z,43.10
2019-02-26T07:28:07.768Z,41.70
2019-02-26T07:30:35.320Z,41.60
2019-02-26T07:33:00.518Z,41.57
2019-02-26T07:35:25.725Z,40.93
2019-02-26T07:37:52.359Z,41.47
2019-02-26T07:40:18.904Z,41.70
2019-02-26T07:42:46.605Z,41.00
2019-02-26T07:45:14.950Z,41.73
2019-02-26T07:47:39.475Z,42.40
2019-02-26T07:50:09.726Z,43.60
2019-02-26T07:52:36.516Z,43.33
2019-02-26T07:55:03.700Z,40.67
2019-02-26T07:57:30.549Z,41.47
2019-02-26T07:59:56.110Z,42.47
2019-02-26T08:02:21.640Z,39.70
2019-02-26T08:04:47.318Z,44.47
2019-02-26T08:07:12.891Z,42.43
2019-02-26T08:12:10.789Z,41.63
2019-02-26T08:14:35.400Z,41.90
2019-02-26T08:17:01.884Z,43.20
2019-02-26T08:19:29.554Z,41.93
2019-02-26T08:21:57.117Z,41.53
2019-02-26T08:24:24.630Z,42.77
2019-02-26T08:26:50.395Z,43.03
2019-02-26T08:29:15.561Z,40.10
2019-02-26T08:31:42.717Z,42.90
2019-02-26T08:34:07.785Z,42.07
2019-02-26T08:36:35.279Z,41.83
2019-02-26T08:39:00.834Z,41.83
2019-02-26T08:41:26.684Z,44.57
2019-02-26T08:43:54.008Z,43.27
2019-02-26T08:46:19.663Z,43.93
2019-02-26T08:48:47.885Z,42.97
2019-02-26T08:51:16.891Z,43.30
2019-02-26T08:53:41.991Z,44.90
2019-02-26T08:56:08.423Z,44.30
2019-02-26T08:58:34.059Z,46.20
2019-02-26T09:00:59.577Z,44.27
2019-02-26T09:03:24.742Z,47.23
2019-02-26T09:05:51.671Z,44.90
2019-02-26T09:08:18.208Z,44.07
2019-02-26T09:10:43.815Z,42.90
2019-02-26T09:13:11.531Z,43.60
2019-02-26T09:15:40.904Z,40.93
2019-02-26T09:18:06.293Z,44.17
2019-02-26T09:20:31.915Z,43.27
2019-02-26T09:22:59.646Z,43.83
2019-02-26T09:25:28.170Z,44.30
2019-02-26T09:27:52.350Z,44.43
2019-02-26T09:30:19.335Z,44.10
2019-02-26T09:32:45.071Z,44.80
2019-02-26T09:35:11.987Z,45.47
2019-02-26T09:37:37.888Z,43.73
2019-02-26T09:40:05.351Z,45.40
2019-02-26T09:42:32.454Z,45.63
2019-02-26T09:45:00.074Z,44.83
2019-02-26T09:47:30.771Z,45.93
2019-02-26T09:49:58.305Z,46.63
2019-02-26T09:52:25.761Z,46.57
2019-02-26T09:54:52.909Z,47.43
2019-02-26T09:57:21.130Z,48.23
2019-02-26T09:59:46.369Z,46.10
2019-02-26T10:02:11.882Z,49.30
2019-02-26T10:04:37.469Z,48.90
2019-02-26T10:07:04.302Z,47.50
2019-02-26T10:09:32.977Z,47.53
2019-02-26T10:11:58.319Z,48.57
2019-02-26T10:14:23.875Z,48.50
2019-02-26T10:16:51.946Z,48.40
2019-02-26T10:19:17.688Z,48.07
2019-02-26T10:21:44.927Z,49.47
2019-02-26T10:24:10.503Z,49.00
2019-02-26T10:26:38.602Z,50.33
2019-02-26T10:29:04.810Z,49.20
2019-02-26T10:31:30.492Z,48.83
2019-02-26T10:33:56.011Z,48.90
2019-02-26T10:36:21.547Z,48.80
2019-02-26T10:38:47.087Z,52.27
2019-02-26T10:41:12.649Z,51.93
2019-02-26T10:43:39.925Z,50.30
2019-02-26T10:46:04.935Z,50.13
2019-02-26T10:48:30.083Z,52.83
2019-02-26T10:50:57.586Z,51.63
2019-02-26T10:53:23.148Z,49.27
2019-02-26T10:55:48.691Z,49.00
2019-02-26T10:58:14.617Z,49.30
2019-02-26T11:00:40.237Z,46.47
2019-02-26T11:03:06.561Z,48.07
2019-02-26T11:05:33.333Z,46.30
2019-02-26T11:08:02.440Z,48.03
2019-02-26T11:10:26.563Z,47.40
2019-02-26T11:12:53.628Z,45.57
2019-02-26T11:15:21.477Z,47.70
2019-02-26T11:17:47.949Z,47.57
2019-02-26T11:20:15.019Z,45.47
2019-02-26T11:22:42.335Z,49.27
2019-02-26T11:25:12.975Z,46.60
2019-02-26T11:27:40.883Z,46.30
2019-02-26T11:30:08.017Z,46.77
2019-02-26T11:32:37.258Z,46.17
2019-02-26T11:35:02.333Z,43.97
2019-02-26T11:37:29.625Z,39.43
2019-02-26T11:39:57.613Z,37.43
2019-02-26T11:42:24.146Z,38.97
2019-02-26T11:44:50.839Z,40.33
2019-02-26T11:47:18.422Z,38.90
2019-02-26T11:49:46.696Z,40.30
2019-02-26T11:52:12.528Z,38.27
2019-02-26T11:54:39.804Z,32.60
2019-02-26T11:57:08.058Z,32.43
2019-02-26T11:59:33.792Z,30.13
2019-02-26T12:02:01.423Z,29.97
2019-02-26T12:04:26.769Z,30.00
2019-02-26T12:06:52.025Z,31.03
2019-02-26T12:09:17.236Z,28.67
2019-02-26T12:11:42.426Z,28.90
2019-02-26T12:14:08.296Z,29.73
2019-02-26T12:16:35.179Z,28.40
2019-02-26T12:19:01.800Z,27.90
2019-02-26T12:21:29.916Z,25.70
2019-02-26T12:23:57.913Z,26.13
2019-02-26T12:26:25.549Z,24.77
2019-02-26T12:28:52.384Z,26.20
2019-02-26T12:31:17.919Z,28.47
2019-02-26T12:33:43.507Z,33.80
2019-02-26T12:36:10.230Z,33.20
2019-02-26T12:38:36.791Z,33.37
2019-02-26T12:41:02.555Z,31.67
2019-02-26T12:43:27.728Z,32.30
2019-02-26T12:45:56.092Z,35.67
2019-02-26T12:48:22.743Z,35.40
2019-02-26T12:50:47.604Z,35.90
2019-02-26T12:53:17.349Z,35.87
2019-02-26T12:55:42.444Z,34.63
2019-02-26T12:58:10.684Z,29.63
2019-02-26T13:00:38.379Z,29.70
2019-02-26T13:03:05.734Z,26.53
2019-02-26T13:05:30.587Z,27.67
2019-02-26T13:07:55.792Z,29.57
2019-02-26T13:10:25.594Z,29.97
2019-02-26T13:12:55.009Z,31.03
2019-02-26T13:15:21.616Z,31.00
2019-02-26T13:17:48.875Z,31.77
2019-02-26T13:20:21.679Z,30.00
2019-02-26T13:22:46.849Z,27.83
2019-02-26T13:25:15.598Z,29.30
2019-02-26T13:27:43.802Z,31.03
2019-02-26T13:30:13.785Z,30.23
2019-02-26T13:32:55.080Z,29.37
2019-02-26T13:35:08.287Z,29.53
2019-02-26T13:37:39.598Z,28.73
2019-02-26T13:40:01.357Z,29.80
2019-02-26T13:42:26.615Z,29.60
2019-02-26T13:44:51.836Z,29.07
2019-02-26T13:47:16.979Z,31.80
2019-02-26T13:49:42.145Z,30.20
2019-02-26T13:52:07.282Z,31.70
2019-02-26T13:54:32.564Z,30.30
2019-02-26T13:56:59.711Z,31.70
2019-02-26T13:59:24.899Z,31.73
2019-02-26T14:01:50.088Z,30.67
2019-02-26T14:04:15.268Z,29.97
2019-02-26T14:06:40.457Z,32.80
2019-02-26T14:09:05.724Z,32.63
2019-02-26T14:11:32.461Z,30.03
2019-02-26T14:13:57.684Z,31.73
2019-02-26T14:16:22.852Z,30.57
2019-02-26T14:18:48.310Z,29.10
2019-02-26T14:21:13.643Z,29.27
2019-02-26T14:23:38.821Z,29.47
2019-02-26T14:26:04.223Z,30.20
2019-02-26T14:28:30.496Z,29.17
2019-02-26T14:30:55.776Z,29.00
2019-02-26T14:33:21.008Z,27.73
2019-02-26T14:35:46.516Z,30.37
2019-02-26T14:38:11.860Z,28.67
2019-02-26T14:40:37.072Z,31.70
2019-02-26T14:43:02.720Z,31.03
2019-02-26T14:45:27.867Z,29.00
2019-02-26T14:47:53.052Z,31.03
2019-02-26T14:50:20.107Z,32.10
2019-02-26T14:52:46.180Z,31.60
2019-02-26T14:55:15.343Z,31.27
2019-02-26T14:57:41.060Z,34.30
2019-02-26T15:00:28.660Z,32.17
2019-02-26T15:02:54.944Z,32.00
2019-02-26T15:05:22.497Z,30.83
2019-02-26T15:07:48.249Z,32.60
2019-02-26T15:10:17.392Z,31.60
2019-02-26T15:12:42.993Z,31.67
2019-02-26T15:15:14.248Z,33.43
2019-02-26T15:17:39.697Z,32.50
2019-02-26T15:20:14.738Z,33.37
2019-02-26T15:22:41.265Z,32.53
2019-02-26T15:25:16.784Z,32.50
2019-02-26T15:27:42.081Z,30.80
2019-02-26T15:30:13.326Z,29.93
2019-02-26T15:32:38.670Z,28.10
2019-02-26T15:35:04.742Z,29.10
2019-02-26T15:37:30.049Z,27.63
2019-02-26T15:40:03.666Z,30.73
2019-02-26T15:42:53.099Z,29.47
2019-02-26T15:45:29.561Z,29.27
2019-02-26T15:47:59.184Z,30.57
2019-02-26T15:50:24.934Z,31.97
2019-02-26T15:52:53.048Z,32.93
2019-02-26T15:55:28.950Z,34.33
2019-02-26T15:57:55.904Z,33.53
2019-02-26T16:00:24.486Z,34.77
2019-02-26T16:03:00.014Z,33.43
2019-02-26T16:05:32.564Z,35.47
2019-02-26T16:07:57.803Z,36.40
2019-02-26T16:10:23.416Z,36.00
2019-02-26T16:12:50.641Z,37.70
2019-02-26T16:15:16.819Z,36.33
2019-02-26T16:17:42.571Z,36.87
2019-02-26T16:20:10.021Z,36.53
2019-02-26T16:22:36.101Z,38.07
2019-02-26T16:25:01.976Z,37.93
2019-02-26T16:27:27.672Z,39.90
2019-02-26T16:29:53.611Z,39.87
2019-02-26T16:32:19.133Z,38.90
2019-02-26T16:34:44.395Z,38.07
2019-02-26T16:37:09.693Z,38.57
2019-02-26T16:39:35.345Z,40.00
2019-02-26T16:42:00.800Z,40.73
2019-02-26T16:44:26.086Z,39.57
2019-02-26T16:46:51.384Z,38.80
2019-02-26T16:49:16.562Z,37.90
2019-02-26T16:51:41.818Z,37.40
2019-02-26T16:54:07.485Z,35.90
2019-02-26T16:56:33.536Z,37.70
2019-02-26T16:58:58.869Z,37.17
2019-02-26T17:01:24.115Z,38.43
2019-02-26T17:03:49.698Z,38.50
2019-02-26T17:06:15.237Z,39.37
2019-02-26T17:08:40.785Z,41.23
2019-02-26T17:11:06.575Z,36.67
2019-02-26T17:13:32.629Z,37.57
2019-02-26T17:15:59.645Z,40.00
2019-02-26T17:18:27.499Z,36.83
2019-02-26T17:20:56.717Z,39.37
2019-02-26T17:23:20.685Z,38.40
2019-02-26T17:25:46.332Z,37.40
2019-02-26T17:28:12.221Z,40.67
2019-02-26T17:30:38.853Z,40.00
2019-02-26T17:33:04.422Z,39.60
2019-02-26T17:35:30.011Z,43.83
2019-02-26T17:37:55.911Z,42.80
2019-02-26T17:40:23.356Z,41.30
2019-02-26T17:42:51.139Z,41.50
2019-02-26T17:45:17.958Z,40.70
2019-02-26T17:47:43.509Z,42.73
2019-02-26T17:50:13.444Z,38.90
2019-02-26T17:52:39.020Z,39.77
2019-02-26T17:55:09.176Z,40.80
2019-02-26T17:57:34.672Z,39.03
2019-02-26T18:00:01.012Z,38.00
2019-02-26T18:02:27.594Z,38.17
2019-02-26T18:04:53.735Z,38.63
2019-02-26T18:07:19.709Z,37.77
2019-02-26T18:09:45.604Z,41.27
2019-02-26T18:12:11.242Z,38.83
2019-02-26T18:14:38.884Z,37.43
2019-02-26T18:17:04.480Z,42.50
2019-02-26T18:19:31.054Z,40.10
2019-02-26T18:21:56.829Z,41.10
2019-02-26T18:24:22.496Z,40.63
2019-02-26T18:26:48.024Z,38.77
2019-02-26T18:29:13.603Z,40.50
2019-02-26T18:31:40.253Z,40.10
2019-02-26T18:34:05.926Z,40.07
2019-02-26T18:36:32.639Z,38.60
2019-02-26T18:38:58.311Z,34.17
2019-02-26T18:41:23.975Z,36.37
2019-02-26T18:43:49.561Z,35.90
2019-02-26T18:46:18.560Z,36.10
2019-02-26T18:48:48.282Z,38.90
2019-02-26T18:51:12.072Z,42.43
2019-02-26T18:53:37.960Z,39.37
2019-02-26T18:56:05.495Z,38.57
2019-02-26T18:58:31.574Z,39.30
2019-02-26T19:00:58.678Z,43.07
2019-02-26T19:03:24.994Z,41.77
2019-02-26T19:05:53.810Z,42.60
2019-02-26T19:08:18.992Z,41.90
2019-02-26T19:10:44.711Z,43.30
2019-02-26T19:13:10.275Z,40.70
2019-02-26T19:15:35.939Z,40.20
2019-02-26T19:18:02.666Z,38.73
2019-02-26T19:20:31.124Z,36.43
2019-02-26T19:22:58.751Z,35.47
2019-02-26T19:25:27.930Z,35.13
2019-02-26T19:27:59.389Z,34.03
2019-02-26T19:30:28.555Z,34.70
2019-02-26T19:32:54.318Z,33.47
2019-02-26T19:35:19.857Z,34.27
2019-02-26T19:37:46.804Z,34.20
2019-02-26T19:40:15.710Z,34.90
2019-02-26T19:42:42.621Z,34.23
2019-02-26T19:45:11.734Z,37.57
2019-02-26T19:47:37.092Z,39.00
2019-02-26T19:50:14.736Z,35.10
2019-02-26T19:52:40.527Z,34.00
2019-02-26T19:55:07.875Z,34.33
2019-02-26T19:57:33.590Z,34.60
2019-02-26T20:00:00.741Z,34.13
2019-02-26T20:02:26.667Z,33.53
2019-02-26T20:04:52.438Z,32.90
2019-02-26T20:07:18.152Z,33.70
2019-02-26T20:09:43.776Z,33.63
2019-02-26T20:12:10.059Z,30.37
2019-02-26T20:14:37.181Z,40.60
2019-02-26T20:17:13.667Z,39.20
2019-02-26T20:19:31.912Z,38.90
2019-02-26T20:21:58.118Z,37.00
2019-02-26T20:24:30.658Z,35.93
2019-02-26T20:26:57.392Z,36.43
2019-02-26T20:29:23.104Z,35.83
2019-02-26T20:31:48.789Z,34.60
2019-02-26T20:34:24.158Z,34.33
2019-02-26T20:36:51.288Z,35.70
2019-02-26T20:39:19.289Z,32.57
2019-02-26T20:41:45.671Z,36.70
2019-02-26T20:44:11.820Z,34.23
2019-02-26T20:46:40.074Z,34.83
2019-02-26T20:49:05.752Z,34.20
2019-02-26T20:51:34.530Z,32.27
2019-02-26T20:54:00.244Z,34.57
2019-02-26T20:56:28.555Z,31.70
2019-02-26T20:58:55.044Z,32.47
2019-02-26T21:01:20.603Z,33.60
2019-02-26T21:03:46.159Z,35.33
2019-02-26T21:06:11.778Z,36.37
2019-02-26T21:08:37.442Z,38.00
2019-02-26T21:11:03.311Z,43.07
2019-02-26T21:13:29.053Z,46.30
2019-02-26T21:15:54.642Z,38.87
2019-02-26T21:18:20.256Z,35.30
2019-02-26T21:20:46.596Z,32.60
2019-02-26T21:23:13.433Z,36.13
2019-02-26T21:25:47.407Z,34.23
2019-02-26T21:28:13.003Z,32.03
2019-02-26T21:30:39.169Z,31.30
2019-02-26T21:33:05.646Z,29.73
2019-02-26T21:35:31.349Z,31.40
2019-02-26T21:37:57.052Z,31.50
2019-02-26T21:43:17.332Z,30.00
2019-02-26T21:45:44.559Z,32.37
2019-02-26T21:48:10.189Z,30.60
2019-02-26T21:50:36.063Z,33.10
2019-02-26T21:53:02.423Z,33.57
2019-02-26T21:55:32.681Z,33.73
2019-02-26T21:57:56.106Z,36.20
2019-02-26T22:00:22.026Z,37.20
2019-02-26T22:02:52.105Z,34.30
2019-02-26T22:05:15.449Z,34.53
2019-02-26T22:07:42.296Z,36.20
2019-02-26T22:10:09.273Z,36.77
2019-02-26T22:12:35.142Z,36.70
2019-02-26T22:15:01.109Z,36.37
2019-02-26T22:17:27.661Z,35.93
2019-02-26T22:20:04.179Z,34.40
2019-02-26T22:22:31.053Z,38.13
2019-02-26T22:24:57.946Z,38.20
2019-02-26T22:27:24.351Z,35.77
2019-02-26T22:29:51.152Z,38.23
2019-02-26T22:35:19.881Z,35.47
2019-02-26T22:37:47.804Z,34.87
2019-02-26T22:40:14.104Z,33.80
2019-02-26T22:42:41.246Z,32.90
2019-02-26T22:45:13.959Z,32.90
2019-02-26T22:47:40.467Z,34.37
2019-02-26T22:50:09.652Z,32.03
2019-02-26T22:52:36.673Z,32.00
2019-02-26T22:55:03.344Z,31.33
2019-02-26T22:57:29.794Z,32.43
2019-02-26T22:59:59.596Z,31.63
2019-02-26T23:02:28.339Z,31.00
2019-02-26T23:04:54.544Z,29.30
2019-02-26T23:07:22.372Z,31.60
2019-02-26T23:09:52.165Z,31.67
2019-02-26T23:12:18.612Z,31.63
2019-02-26T23:14:44.869Z,32.07
2019-02-26T23:17:11.498Z,29.73
2019-02-26T23:19:39.485Z,31.20
2019-02-26T23:22:05.620Z,29.77
2019-02-26T23:24:31.384Z,30.87
2019-02-26T23:26:56.805Z,31.47
2019-02-26T23:29:22.407Z,29.63
2019-02-26T23:31:48.811Z,32.03
2019-02-26T23:34:14.482Z,31.80
2019-02-26T23:36:40.197Z,34.93
2019-02-26T23:39:06.385Z,33.80
2019-02-26T23:41:34.916Z,31.50
2019-02-26T23:44:02.432Z,31.50
2019-02-26T23:46:29.733Z,29.90
2019-02-26T23:48:55.711Z,30.50
2019-02-26T23:51:22.446Z,31.27
2019-02-26T23:53:47.862Z,32.60
2019-02-26T23:56:13.311Z,32.10
2019-02-26T23:58:38.887Z,33.30
